ESGJ/JKG METAR and TAF weather

Enter ICAO airport designator
Station Type Date Time Source
ESGJ METAR 2019/08/22 02:50 UTC NOAA

ESGJ 220250Z AUTO 22005KT 7000 NCD 08/08 Q1026


Station Type Date Time Source
ESGJ Decoded METAR 2019/08/22 02:50 UTC NOAA

Station name not available
Aug 21, 2019 - 10:50 PM EDT / 2019.08.22 0250 UTC
Wind: from the SW (220 degrees) at 6 MPH (5 KT):0
Visibility: 4 mile(s):0
Temperature: 46 F (8 C)
Dew Point: 46 F (8 C)
Relative Humidity: 100%
Pressure (altimeter): 30.30 in. Hg (1026 hPa)
ob: ESGJ 220250Z AUTO 22005KT 7000 NCD 08/08 Q1026
cycle: 3

Station Type Date Time Source
ESGJ TAF 2015/05/01 23:06 UTC NOAA

TAF TAF ESGJ 302359Z 3023/0101 CNL

Example: see airport list